sensor_id;sensor_type;location;lat;lon;timestamp;P1;durP1;ratioP1;P2;durP2;ratioP2
39524;SDS011;25203;50.754;6.978;2022-09-12T00:00:16;33.85;;;20.98;;
39524;SDS011;25203;50.754;6.978;2022-09-12T00:02:16;33.88;;;22.02;;
39524;SDS011;25203;50.754;6.978;2022-09-12T00:04:17;36.28;;;21.30;;
39524;SDS011;25203;50.754;6.978;2022-09-12T00:06:19;31.25;;;22.52;;
39524;SDS011;25203;50.754;6.978;2022-09-12T00:08:27;31.38;;;22.13;;
39524;SDS011;25203;50.754;6.978;2022-09-12T00:10:28;32.90;;;20.92;;
39524;SDS011;25203;50.754;6.978;2022-09-12T00:12:28;31.70;;;21.23;;
39524;SDS011;25203;50.754;6.978;2022-09-12T00:14:29;30.00;;;20.92;;
39524;SDS011;25203;50.754;6.978;2022-09-12T00:16:31;29.10;;;20.83;;
39524;SDS011;25203;50.754;6.978;2022-09-12T00:18:33;28.65;;;19.63;;
39524;SDS011;25203;50.754;6.978;2022-09-12T00:20:34;27.67;;;20.10;;
39524;SDS011;25203;50.754;6.978;2022-09-12T00:22:34;29.00;;;18.80;;
39524;SDS011;25203;50.754;6.978;2022-09-12T00:24:35;27.95;;;18.92;;
39524;SDS011;25203;50.754;6.978;2022-09-12T00:26:36;29.30;;;20.48;;
39524;SDS011;25203;50.754;6.978;2022-09-12T00:28:37;27.67;;;18.67;;
39524;SDS011;25203;50.754;6.978;2022-09-12T00:30:40;27.63;;;19.00;;
39524;SDS011;25203;50.754;6.978;2022-09-12T00:32:45;28.33;;;20.27;;
39524;SDS011;25203;50.754;6.978;2022-09-12T00:34:45;33.10;;;20.30;;
39524;SDS011;25203;50.754;6.978;2022-09-12T00:36:46;32.88;;;20.77;;
39524;SDS011;25203;50.754;6.978;2022-09-12T00:38:47;28.75;;;20.40;;
39524;SDS011;25203;50.754;6.978;2022-09-12T00:40:49;29.65;;;20.13;;
39524;SDS011;25203;50.754;6.978;2022-09-12T00:42:50;28.80;;;18.90;;
39524;SDS011;25203;50.754;6.978;2022-09-12T00:44:51;30.25;;;20.95;;
39524;SDS011;25203;50.754;6.978;2022-09-12T00:49:04;28.42;;;19.10;;
39524;SDS011;25203;50.754;6.978;2022-09-12T00:51:24;27.17;;;19.75;;
39524;SDS011;25203;50.754;6.978;2022-09-12T00:53:26;30.63;;;19.73;;
39524;SDS011;25203;50.754;6.978;2022-09-12T00:55:37;28.65;;;19.38;;
39524;SDS011;25203;50.754;6.978;2022-09-12T00:58:00;27.48;;;20.35;;
39524;SDS011;25203;50.754;6.978;2022-09-12T01:00:09;26.90;;;19.15;;
39524;SDS011;25203;50.754;6.978;2022-09-12T01:02:14;31.38;;;19.70;;
39524;SDS011;25203;50.754;6.978;2022-09-12T01:04:16;26.92;;;18.15;;
39524;SDS011;25203;50.754;6.978;2022-09-12T01:06:21;27.38;;;18.42;;
39524;SDS011;25203;50.754;6.978;2022-09-12T01:08:26;34.85;;;19.55;;
39524;SDS011;25203;50.754;6.978;2022-09-12T01:10:27;30.00;;;19.25;;
39524;SDS011;25203;50.754;6.978;2022-09-12T01:12:28;29.70;;;20.23;;
39524;SDS011;25203;50.754;6.978;2022-09-12T01:14:30;32.13;;;21.38;;
39524;SDS011;25203;50.754;6.978;2022-09-12T01:16:33;31.73;;;20.30;;
39524;SDS011;25203;50.754;6.978;2022-09-12T01:20:54;33.60;;;19.08;;
39524;SDS011;25203;50.754;6.978;2022-09-12T01:25:27;25.40;;;17.08;;
39524;SDS011;25203;50.754;6.978;2022-09-12T01:32:02;32.33;;;20.20;;
39524;SDS011;25203;50.754;6.978;2022-09-12T01:34:25;29.13;;;19.20;;
39524;SDS011;25203;50.754;6.978;2022-09-12T01:39:29;29.45;;;19.05;;
39524;SDS011;25203;50.754;6.978;2022-09-12T01:41:54;30.50;;;18.85;;
39524;SDS011;25203;50.754;6.978;2022-09-12T01:46:36;27.52;;;17.15;;
39524;SDS011;25203;50.754;6.978;2022-09-12T01:48:53;27.17;;;19.15;;
39524;SDS011;25203;50.754;6.978;2022-09-12T01:57:26;30.00;;;19.40;;
39524;SDS011;25203;50.754;6.978;2022-09-12T01:59:37;30.40;;;18.63;;
39524;SDS011;25203;50.754;6.978;2022-09-12T02:01:46;30.90;;;18.95;;
39524;SDS011;25203;50.754;6.978;2022-09-12T02:04:04;28.38;;;19.27;;
39524;SDS011;25203;50.754;6.978;2022-09-12T02:06:18;28.35;;;17.83;;
39524;SDS011;25203;50.754;6.978;2022-09-12T02:08:30;29.80;;;18.23;;
39524;SDS011;25203;50.754;6.978;2022-09-12T02:10:40;27.70;;;17.00;;
39524;SDS011;25203;50.754;6.978;2022-09-12T02:12:52;29.13;;;16.70;;
39524;SDS011;25203;50.754;6.978;2022-09-12T02:15:08;31.88;;;19.88;;
39524;SDS011;25203;50.754;6.978;2022-09-12T02:17:12;28.73;;;18.10;;
39524;SDS011;25203;50.754;6.978;2022-09-12T02:19:19;29.05;;;19.77;;
39524;SDS011;25203;50.754;6.978;2022-09-12T02:21:23;36.45;;;20.40;;
39524;SDS011;25203;50.754;6.978;2022-09-12T02:23:27;26.75;;;17.55;;
39524;SDS011;25203;50.754;6.978;2022-09-12T02:25:30;37.28;;;21.70;;
39524;SDS011;25203;50.754;6.978;2022-09-12T02:27:36;33.35;;;21.60;;
39524;SDS011;25203;50.754;6.978;2022-09-12T02:29:40;34.00;;;21.65;;
39524;SDS011;25203;50.754;6.978;2022-09-12T02:31:46;29.13;;;19.67;;
39524;SDS011;25203;50.754;6.978;2022-09-12T02:35:57;30.40;;;20.00;;
39524;SDS011;25203;50.754;6.978;2022-09-12T02:38:32;36.60;;;21.50;;
39524;SDS011;25203;50.754;6.978;2022-09-12T02:40:39;28.25;;;19.88;;
39524;SDS011;25203;50.754;6.978;2022-09-12T02:42:40;34.13;;;20.88;;
39524;SDS011;25203;50.754;6.978;2022-09-12T02:44:41;38.53;;;21.55;;
39524;SDS011;25203;50.754;6.978;2022-09-12T02:46:43;34.38;;;21.13;;
39524;SDS011;25203;50.754;6.978;2022-09-12T02:48:47;36.35;;;20.92;;
39524;SDS011;25203;50.754;6.978;2022-09-12T02:50:48;32.38;;;20.83;;
39524;SDS011;25203;50.754;6.978;2022-09-12T02:52:49;30.10;;;19.90;;
39524;SDS011;25203;50.754;6.978;2022-09-12T02:54:52;33.25;;;19.45;;
39524;SDS011;25203;50.754;6.978;2022-09-12T02:56:54;34.42;;;20.38;;
39524;SDS011;25203;50.754;6.978;2022-09-12T02:58:56;40.58;;;22.85;;
39524;SDS011;25203;50.754;6.978;2022-09-12T03:05:21;42.60;;;22.17;;
39524;SDS011;25203;50.754;6.978;2022-09-12T03:09:57;38.58;;;21.17;;
39524;SDS011;25203;50.754;6.978;2022-09-12T03:12:25;37.00;;;21.38;;
39524;SDS011;25203;50.754;6.978;2022-09-12T03:14:37;35.72;;;20.92;;
39524;SDS011;25203;50.754;6.978;2022-09-12T03:23:24;31.50;;;18.83;;
39524;SDS011;25203;50.754;6.978;2022-09-12T03:25:43;31.58;;;18.65;;
39524;SDS011;25203;50.754;6.978;2022-09-12T03:29:56;32.65;;;20.30;;
39524;SDS011;25203;50.754;6.978;2022-09-12T03:31:59;36.95;;;19.40;;
39524;SDS011;25203;50.754;6.978;2022-09-12T03:33:59;34.42;;;19.88;;
39524;SDS011;25203;50.754;6.978;2022-09-12T03:36:00;39.42;;;20.85;;
39524;SDS011;25203;50.754;6.978;2022-09-12T03:38:01;35.20;;;21.23;;
39524;SDS011;25203;50.754;6.978;2022-09-12T03:40:03;37.05;;;20.42;;
39524;SDS011;25203;50.754;6.978;2022-09-12T03:42:05;33.38;;;20.35;;
39524;SDS011;25203;50.754;6.978;2022-09-12T03:44:05;36.17;;;21.13;;
39524;SDS011;25203;50.754;6.978;2022-09-12T03:46:06;31.52;;;20.05;;
39524;SDS011;25203;50.754;6.978;2022-09-12T03:48:07;39.42;;;22.38;;
39524;SDS011;25203;50.754;6.978;2022-09-12T03:50:07;36.58;;;21.05;;
39524;SDS011;25203;50.754;6.978;2022-09-12T03:52:08;34.72;;;20.30;;
39524;SDS011;25203;50.754;6.978;2022-09-12T03:54:09;35.03;;;21.33;;
39524;SDS011;25203;50.754;6.978;2022-09-12T03:56:11;36.13;;;20.60;;
39524;SDS011;25203;50.754;6.978;2022-09-12T03:58:12;30.42;;;19.90;;
39524;SDS011;25203;50.754;6.978;2022-09-12T04:00:13;33.35;;;19.55;;
39524;SDS011;25203;50.754;6.978;2022-09-12T04:02:13;32.22;;;18.83;;
39524;SDS011;25203;50.754;6.978;2022-09-12T04:04:14;34.47;;;21.05;;
39524;SDS011;25203;50.754;6.978;2022-09-12T04:06:16;37.08;;;21.52;;
39524;SDS011;25203;50.754;6.978;2022-09-12T04:08:18;42.25;;;22.05;;
39524;SDS011;25203;50.754;6.978;2022-09-12T04:10:19;35.30;;;20.25;;
39524;SDS011;25203;50.754;6.978;2022-09-12T04:12:20;37.25;;;21.02;;
39524;SDS011;25203;50.754;6.978;2022-09-12T04:14:20;31.30;;;18.88;;
39524;SDS011;25203;50.754;6.978;2022-09-12T04:16:21;31.90;;;18.90;;
39524;SDS011;25203;50.754;6.978;2022-09-12T04:18:22;29.40;;;19.50;;
39524;SDS011;25203;50.754;6.978;2022-09-12T04:20:23;32.63;;;20.33;;
39524;SDS011;25203;50.754;6.978;2022-09-12T04:22:23;35.22;;;20.50;;
39524;SDS011;25203;50.754;6.978;2022-09-12T04:24:24;36.10;;;19.98;;
39524;SDS011;25203;50.754;6.978;2022-09-12T04:26:25;38.88;;;21.80;;
39524;SDS011;25203;50.754;6.978;2022-09-12T04:28:28;43.90;;;22.80;;
39524;SDS011;25203;50.754;6.978;2022-09-12T04:30:29;38.47;;;21.55;;
39524;SDS011;25203;50.754;6.978;2022-09-12T04:32:30;35.67;;;18.92;;
39524;SDS011;25203;50.754;6.978;2022-09-12T04:34:31;38.65;;;21.00;;
39524;SDS011;25203;50.754;6.978;2022-09-12T04:36:31;33.30;;;20.35;;
39524;SDS011;25203;50.754;6.978;2022-09-12T04:38:34;35.65;;;20.48;;
39524;SDS011;25203;50.754;6.978;2022-09-12T04:40:36;38.88;;;21.80;;
39524;SDS011;25203;50.754;6.978;2022-09-12T04:42:36;34.22;;;20.60;;
39524;SDS011;25203;50.754;6.978;2022-09-12T04:44:37;33.15;;;19.73;;
39524;SDS011;25203;50.754;6.978;2022-09-12T04:46:39;32.80;;;20.27;;
39524;SDS011;25203;50.754;6.978;2022-09-12T04:48:44;35.00;;;20.13;;
39524;SDS011;25203;50.754;6.978;2022-09-12T04:50:45;37.72;;;20.95;;
39524;SDS011;25203;50.754;6.978;2022-09-12T04:52:50;35.22;;;21.20;;
39524;SDS011;25203;50.754;6.978;2022-09-12T04:54:51;33.92;;;20.50;;
39524;SDS011;25203;50.754;6.978;2022-09-12T04:56:52;28.05;;;18.98;;
39524;SDS011;25203;50.754;6.978;2022-09-12T04:58:57;40.05;;;21.90;;
39524;SDS011;25203;50.754;6.978;2022-09-12T05:01:03;43.78;;;23.08;;
39524;SDS011;25203;50.754;6.978;2022-09-12T05:03:08;35.03;;;20.83;;
39524;SDS011;25203;50.754;6.978;2022-09-12T05:05:09;61.30;;;29.85;;
39524;SDS011;25203;50.754;6.978;2022-09-12T05:07:10;47.13;;;24.13;;
39524;SDS011;25203;50.754;6.978;2022-09-12T05:09:11;41.00;;;22.80;;
39524;SDS011;25203;50.754;6.978;2022-09-12T05:11:14;37.20;;;21.52;;
39524;SDS011;25203;50.754;6.978;2022-09-12T05:13:17;50.08;;;26.85;;
39524;SDS011;25203;50.754;6.978;2022-09-12T05:15:17;46.58;;;25.20;;
39524;SDS011;25203;50.754;6.978;2022-09-12T05:17:18;44.65;;;24.52;;
39524;SDS011;25203;50.754;6.978;2022-09-12T05:19:19;45.22;;;24.15;;
39524;SDS011;25203;50.754;6.978;2022-09-12T05:21:20;49.35;;;25.55;;
39524;SDS011;25203;50.754;6.978;2022-09-12T05:23:22;49.08;;;24.58;;
39524;SDS011;25203;50.754;6.978;2022-09-12T05:25:23;45.38;;;24.17;;
39524;SDS011;25203;50.754;6.978;2022-09-12T05:27:24;41.40;;;22.70;;
39524;SDS011;25203;50.754;6.978;2022-09-12T05:29:25;46.10;;;24.42;;
39524;SDS011;25203;50.754;6.978;2022-09-12T05:31:26;49.42;;;25.75;;
39524;SDS011;25203;50.754;6.978;2022-09-12T05:33:27;41.67;;;23.67;;
39524;SDS011;25203;50.754;6.978;2022-09-12T05:35:29;46.47;;;25.73;;
39524;SDS011;25203;50.754;6.978;2022-09-12T05:37:29;51.05;;;24.95;;
39524;SDS011;25203;50.754;6.978;2022-09-12T05:39:30;56.75;;;27.90;;
39524;SDS011;25203;50.754;6.978;2022-09-12T05:41:31;43.30;;;25.90;;
39524;SDS011;25203;50.754;6.978;2022-09-12T05:43:33;40.33;;;23.52;;
39524;SDS011;25203;50.754;6.978;2022-09-12T05:45:33;47.65;;;26.02;;
39524;SDS011;25203;50.754;6.978;2022-09-12T05:47:34;41.70;;;23.90;;
39524;SDS011;25203;50.754;6.978;2022-09-12T05:49:35;43.00;;;24.55;;
39524;SDS011;25203;50.754;6.978;2022-09-12T05:51:37;51.53;;;27.02;;
39524;SDS011;25203;50.754;6.978;2022-09-12T05:53:40;43.45;;;24.88;;
39524;SDS011;25203;50.754;6.978;2022-09-12T05:55:41;43.15;;;25.92;;
39524;SDS011;25203;50.754;6.978;2022-09-12T05:57:44;38.13;;;23.80;;
39524;SDS011;25203;50.754;6.978;2022-09-12T05:59:45;34.17;;;23.73;;
39524;SDS011;25203;50.754;6.978;2022-09-12T06:01:46;38.92;;;22.95;;
39524;SDS011;25203;50.754;6.978;2022-09-12T06:03:48;33.85;;;22.05;;
39524;SDS011;25203;50.754;6.978;2022-09-12T06:05:50;36.35;;;21.35;;
39524;SDS011;25203;50.754;6.978;2022-09-12T06:07:51;35.35;;;20.58;;
39524;SDS011;25203;50.754;6.978;2022-09-12T06:09:52;34.60;;;21.30;;
39524;SDS011;25203;50.754;6.978;2022-09-12T06:11:53;30.65;;;20.13;;
39524;SDS011;25203;50.754;6.978;2022-09-12T06:13:55;31.98;;;21.52;;
39524;SDS011;25203;50.754;6.978;2022-09-12T06:16:04;28.27;;;20.48;;
39524;SDS011;25203;50.754;6.978;2022-09-12T06:18:12;34.72;;;22.20;;
39524;SDS011;25203;50.754;6.978;2022-09-12T06:20:13;34.67;;;19.95;;
39524;SDS011;25203;50.754;6.978;2022-09-12T06:22:13;28.88;;;20.35;;
39524;SDS011;25203;50.754;6.978;2022-09-12T06:24:14;32.95;;;21.45;;
39524;SDS011;25203;50.754;6.978;2022-09-12T06:26:17;23.48;;;18.33;;
39524;SDS011;25203;50.754;6.978;2022-09-12T06:28:20;27.75;;;18.38;;
39524;SDS011;25203;50.754;6.978;2022-09-12T06:30:21;26.60;;;17.75;;
39524;SDS011;25203;50.754;6.978;2022-09-12T06:32:21;26.50;;;18.52;;
39524;SDS011;25203;50.754;6.978;2022-09-12T06:34:22;24.38;;;17.58;;
39524;SDS011;25203;50.754;6.978;2022-09-12T06:36:24;24.08;;;15.63;;
39524;SDS011;25203;50.754;6.978;2022-09-12T06:38:29;23.30;;;16.98;;
39524;SDS011;25203;50.754;6.978;2022-09-12T06:40:30;23.95;;;17.80;;
39524;SDS011;25203;50.754;6.978;2022-09-12T06:42:31;26.65;;;17.67;;
39524;SDS011;25203;50.754;6.978;2022-09-12T06:44:32;24.95;;;16.85;;
39524;SDS011;25203;50.754;6.978;2022-09-12T06:46:33;22.25;;;16.92;;
39524;SDS011;25203;50.754;6.978;2022-09-12T06:48:33;21.90;;;16.48;;
39524;SDS011;25203;50.754;6.978;2022-09-12T06:50:34;22.33;;;16.00;;
39524;SDS011;25203;50.754;6.978;2022-09-12T06:52:35;25.40;;;16.63;;
39524;SDS011;25203;50.754;6.978;2022-09-12T06:54:36;24.17;;;17.30;;
39524;SDS011;25203;50.754;6.978;2022-09-12T06:56:36;25.75;;;17.20;;
39524;SDS011;25203;50.754;6.978;2022-09-12T06:58:37;16.58;;;14.27;;
39524;SDS011;25203;50.754;6.978;2022-09-12T07:00:38;21.58;;;16.67;;
39524;SDS011;25203;50.754;6.978;2022-09-12T07:02:39;18.60;;;15.30;;
39524;SDS011;25203;50.754;6.978;2022-09-12T07:04:40;20.23;;;15.15;;
39524;SDS011;25203;50.754;6.978;2022-09-12T07:06:41;20.95;;;14.50;;
39524;SDS011;25203;50.754;6.978;2022-09-12T07:08:43;23.27;;;16.65;;
39524;SDS011;25203;50.754;6.978;2022-09-12T07:10:44;21.70;;;15.27;;
39524;SDS011;25203;50.754;6.978;2022-09-12T07:12:45;19.25;;;14.45;;
39524;SDS011;25203;50.754;6.978;2022-09-12T07:14:46;20.15;;;14.45;;
39524;SDS011;25203;50.754;6.978;2022-09-12T07:16:47;19.55;;;14.40;;
39524;SDS011;25203;50.754;6.978;2022-09-12T07:18:52;17.33;;;13.88;;
39524;SDS011;25203;50.754;6.978;2022-09-12T07:21:00;19.38;;;14.20;;
39524;SDS011;25203;50.754;6.978;2022-09-12T07:23:01;17.05;;;13.82;;
39524;SDS011;25203;50.754;6.978;2022-09-12T07:25:02;17.33;;;13.80;;
39524;SDS011;25203;50.754;6.978;2022-09-12T07:27:04;18.60;;;13.57;;
39524;SDS011;25203;50.754;6.978;2022-09-12T07:29:04;16.02;;;13.43;;
39524;SDS011;25203;50.754;6.978;2022-09-12T07:33:10;14.00;;;12.50;;
39524;SDS011;25203;50.754;6.978;2022-09-12T07:35:11;15.63;;;11.82;;
39524;SDS011;25203;50.754;6.978;2022-09-12T07:37:12;18.90;;;13.38;;
39524;SDS011;25203;50.754;6.978;2022-09-12T07:39:12;16.20;;;12.40;;
39524;SDS011;25203;50.754;6.978;2022-09-12T07:41:15;15.25;;;12.05;;
39524;SDS011;25203;50.754;6.978;2022-09-12T07:43:18;15.93;;;11.75;;
39524;SDS011;25203;50.754;6.978;2022-09-12T07:45:18;12.52;;;10.80;;
39524;SDS011;25203;50.754;6.978;2022-09-12T07:47:19;15.40;;;11.48;;
39524;SDS011;25203;50.754;6.978;2022-09-12T07:49:19;15.77;;;11.13;;
39524;SDS011;25203;50.754;6.978;2022-09-12T07:51:20;12.73;;;11.05;;
39524;SDS011;25203;50.754;6.978;2022-09-12T07:53:22;12.50;;;10.25;;
39524;SDS011;25203;50.754;6.978;2022-09-12T07:55:22;12.25;;;10.25;;
39524;SDS011;25203;50.754;6.978;2022-09-12T07:57:23;11.05;;;8.88;;
39524;SDS011;25203;50.754;6.978;2022-09-12T07:59:24;11.00;;;9.50;;
39524;SDS011;25203;50.754;6.978;2022-09-12T08:01:26;11.27;;;8.93;;
39524;SDS011;25203;50.754;6.978;2022-09-12T08:03:26;12.48;;;9.95;;
39524;SDS011;25203;50.754;6.978;2022-09-12T08:05:27;9.43;;;8.18;;
39524;SDS011;25203;50.754;6.978;2022-09-12T08:07:28;11.85;;;9.27;;
39524;SDS011;25203;50.754;6.978;2022-09-12T08:09:29;10.80;;;9.73;;
39524;SDS011;25203;50.754;6.978;2022-09-12T08:11:30;10.45;;;8.57;;
39524;SDS011;25203;50.754;6.978;2022-09-12T08:13:31;16.23;;;11.57;;
39524;SDS011;25203;50.754;6.978;2022-09-12T08:15:33;9.63;;;8.63;;
39524;SDS011;25203;50.754;6.978;2022-09-12T08:17:33;11.35;;;9.88;;
39524;SDS011;25203;50.754;6.978;2022-09-12T08:19:34;15.43;;;10.80;;
39524;SDS011;25203;50.754;6.978;2022-09-12T08:21:35;10.13;;;8.88;;
39524;SDS011;25203;50.754;6.978;2022-09-12T08:23:35;10.30;;;8.82;;
39524;SDS011;25203;50.754;6.978;2022-09-12T08:25:36;12.60;;;9.55;;
39524;SDS011;25203;50.754;6.978;2022-09-12T08:27:37;9.95;;;8.27;;
39524;SDS011;25203;50.754;6.978;2022-09-12T08:29:38;13.30;;;8.68;;
39524;SDS011;25203;50.754;6.978;2022-09-12T08:31:38;10.80;;;9.63;;
39524;SDS011;25203;50.754;6.978;2022-09-12T08:33:41;9.95;;;7.63;;
39524;SDS011;25203;50.754;6.978;2022-09-12T08:35:42;10.35;;;9.25;;
39524;SDS011;25203;50.754;6.978;2022-09-12T08:37:42;9.45;;;8.00;;
39524;SDS011;25203;50.754;6.978;2022-09-12T08:39:43;8.43;;;7.47;;
39524;SDS011;25203;50.754;6.978;2022-09-12T08:41:44;7.75;;;6.55;;
39524;SDS011;25203;50.754;6.978;2022-09-12T08:45:52;7.68;;;6.38;;
39524;SDS011;25203;50.754;6.978;2022-09-12T08:47:58;9.40;;;5.93;;
39524;SDS011;25203;50.754;6.978;2022-09-12T08:52:11;6.45;;;5.40;;
39524;SDS011;25203;50.754;6.978;2022-09-12T08:54:19;8.48;;;5.68;;
39524;SDS011;25203;50.754;6.978;2022-09-12T08:56:23;6.28;;;5.15;;
39524;SDS011;25203;50.754;6.978;2022-09-12T08:58:27;8.30;;;5.47;;
39524;SDS011;25203;50.754;6.978;2022-09-12T09:00:37;5.25;;;4.75;;
39524;SDS011;25203;50.754;6.978;2022-09-12T09:04:55;5.95;;;5.30;;
39524;SDS011;25203;50.754;6.978;2022-09-12T09:17:18;9.32;;;5.30;;
39524;SDS011;25203;50.754;6.978;2022-09-12T09:19:27;6.93;;;5.40;;
39524;SDS011;25203;50.754;6.978;2022-09-12T09:21:30;6.28;;;4.72;;
39524;SDS011;25203;50.754;6.978;2022-09-12T09:24:00;8.95;;;5.60;;
39524;SDS011;25203;50.754;6.978;2022-09-12T09:26:12;8.48;;;5.05;;
39524;SDS011;25203;50.754;6.978;2022-09-12T09:30:36;4.93;;;4.50;;
39524;SDS011;25203;50.754;6.978;2022-09-12T09:32:38;4.03;;;3.63;;
39524;SDS011;25203;50.754;6.978;2022-09-12T09:34:40;5.03;;;4.25;;
39524;SDS011;25203;50.754;6.978;2022-09-12T09:36:59;4.18;;;3.33;;
39524;SDS011;25203;50.754;6.978;2022-09-12T09:39:08;4.50;;;3.38;;
39524;SDS011;25203;50.754;6.978;2022-09-12T09:43:44;5.00;;;4.55;;
39524;SDS011;25203;50.754;6.978;2022-09-12T09:45:45;5.68;;;4.43;;
39524;SDS011;25203;50.754;6.978;2022-09-12T09:49:57;6.78;;;4.13;;
39524;SDS011;25203;50.754;6.978;2022-09-12T09:51:59;4.30;;;3.90;;
39524;SDS011;25203;50.754;6.978;2022-09-12T09:58:36;6.43;;;3.35;;
39524;SDS011;25203;50.754;6.978;2022-09-12T10:00:38;4.82;;;3.28;;
39524;SDS011;25203;50.754;6.978;2022-09-12T10:02:39;3.70;;;3.33;;
39524;SDS011;25203;50.754;6.978;2022-09-12T10:04:40;5.50;;;3.35;;
39524;SDS011;25203;50.754;6.978;2022-09-12T10:06:53;3.63;;;3.00;;
39524;SDS011;25203;50.754;6.978;2022-09-12T10:09:04;4.05;;;3.33;;
39524;SDS011;25203;50.754;6.978;2022-09-12T10:11:19;2.78;;;2.53;;
39524;SDS011;25203;50.754;6.978;2022-09-12T10:13:23;3.22;;;2.80;;
39524;SDS011;25203;50.754;6.978;2022-09-12T10:15:29;3.85;;;3.13;;
39524;SDS011;25203;50.754;6.978;2022-09-12T10:17:31;5.55;;;3.20;;
39524;SDS011;25203;50.754;6.978;2022-09-12T10:19:41;4.43;;;3.13;;
39524;SDS011;25203;50.754;6.978;2022-09-12T10:21:46;5.10;;;2.67;;
39524;SDS011;25203;50.754;6.978;2022-09-12T10:23:52;3.38;;;2.80;;
39524;SDS011;25203;50.754;6.978;2022-09-12T10:26:04;5.97;;;3.00;;
39524;SDS011;25203;50.754;6.978;2022-09-12T10:28:12;3.00;;;2.20;;
39524;SDS011;25203;50.754;6.978;2022-09-12T10:30:27;2.80;;;2.60;;
39524;SDS011;25203;50.754;6.978;2022-09-12T10:32:35;4.93;;;2.53;;
39524;SDS011;25203;50.754;6.978;2022-09-12T10:34:42;4.40;;;2.80;;
39524;SDS011;25203;50.754;6.978;2022-09-12T10:36:44;4.32;;;3.25;;
39524;SDS011;25203;50.754;6.978;2022-09-12T10:38:49;8.65;;;3.10;;
39524;SDS011;25203;50.754;6.978;2022-09-12T10:41:08;4.20;;;2.50;;
39524;SDS011;25203;50.754;6.978;2022-09-12T10:43:17;2.83;;;2.10;;
39524;SDS011;25203;50.754;6.978;2022-09-12T10:45:30;3.05;;;2.13;;
39524;SDS011;25203;50.754;6.978;2022-09-12T10:47:35;4.50;;;2.17;;
39524;SDS011;25203;50.754;6.978;2022-09-12T10:49:36;5.22;;;2.55;;
39524;SDS011;25203;50.754;6.978;2022-09-12T10:51:39;2.65;;;2.42;;
39524;SDS011;25203;50.754;6.978;2022-09-12T10:53:40;4.30;;;3.47;;
39524;SDS011;25203;50.754;6.978;2022-09-12T11:00:13;2.75;;;2.47;;
39524;SDS011;25203;50.754;6.978;2022-09-12T11:04:36;3.78;;;3.10;;
39524;SDS011;25203;50.754;6.978;2022-09-12T11:10:09;4.82;;;2.92;;
39524;SDS011;25203;50.754;6.978;2022-09-12T11:11:57;7.97;;;3.40;;
39524;SDS011;25203;50.754;6.978;2022-09-12T11:16:41;2.95;;;2.63;;
39524;SDS011;25203;50.754;6.978;2022-09-12T11:30:15;3.85;;;3.55;;
39524;SDS011;25203;50.754;6.978;2022-09-12T11:32:29;4.05;;;3.10;;
39524;SDS011;25203;50.754;6.978;2022-09-12T11:34:48;5.72;;;3.78;;
39524;SDS011;25203;50.754;6.978;2022-09-12T11:41:42;3.90;;;3.50;;
39524;SDS011;25203;50.754;6.978;2022-09-12T11:43:53;5.25;;;2.97;;
39524;SDS011;25203;50.754;6.978;2022-09-12T11:46:01;3.53;;;3.00;;
39524;SDS011;25203;50.754;6.978;2022-09-12T11:48:11;3.75;;;3.13;;
39524;SDS011;25203;50.754;6.978;2022-09-12T11:50:23;3.85;;;3.10;;
39524;SDS011;25203;50.754;6.978;2022-09-12T11:52:28;4.55;;;4.00;;
39524;SDS011;25203;50.754;6.978;2022-09-12T11:56:40;3.67;;;3.38;;
39524;SDS011;25203;50.754;6.978;2022-09-12T11:58:47;4.35;;;3.40;;
39524;SDS011;25203;50.754;6.978;2022-09-12T12:01:01;4.28;;;3.72;;
39524;SDS011;25203;50.754;6.978;2022-09-12T12:03:19;4.00;;;3.60;;
39524;SDS011;25203;50.754;6.978;2022-09-12T12:09:53;4.00;;;3.60;;
39524;SDS011;25203;50.754;6.978;2022-09-12T12:11:54;4.80;;;3.45;;
39524;SDS011;25203;50.754;6.978;2022-09-12T12:14:01;5.18;;;3.35;;
39524;SDS011;25203;50.754;6.978;2022-09-12T12:16:05;4.05;;;3.10;;
39524;SDS011;25203;50.754;6.978;2022-09-12T12:20:17;3.72;;;2.92;;
39524;SDS011;25203;50.754;6.978;2022-09-12T12:22:19;5.85;;;3.55;;
39524;SDS011;25203;50.754;6.978;2022-09-12T12:24:23;6.03;;;2.85;;
39524;SDS011;25203;50.754;6.978;2022-09-12T12:32:55;3.13;;;2.75;;
39524;SDS011;25203;50.754;6.978;2022-09-12T12:35:38;3.80;;;3.00;;
39524;SDS011;25203;50.754;6.978;2022-09-12T12:41:42;3.40;;;3.10;;
39524;SDS011;25203;50.754;6.978;2022-09-12T12:43:44;3.92;;;3.55;;
39524;SDS011;25203;50.754;6.978;2022-09-12T12:46:15;3.13;;;2.83;;
39524;SDS011;25203;50.754;6.978;2022-09-12T12:48:17;3.13;;;2.83;;
39524;SDS011;25203;50.754;6.978;2022-09-12T12:56:48;4.03;;;3.55;;
39524;SDS011;25203;50.754;6.978;2022-09-12T12:59:00;3.78;;;3.17;;
39524;SDS011;25203;50.754;6.978;2022-09-12T13:01:13;3.58;;;3.28;;
39524;SDS011;25203;50.754;6.978;2022-09-12T13:03:26;4.38;;;3.30;;
39524;SDS011;25203;50.754;6.978;2022-09-12T13:05:36;3.65;;;3.10;;
39524;SDS011;25203;50.754;6.978;2022-09-12T13:08:01;3.00;;;2.70;;
39524;SDS011;25203;50.754;6.978;2022-09-12T13:10:06;3.95;;;3.30;;
39524;SDS011;25203;50.754;6.978;2022-09-12T13:12:08;3.38;;;3.08;;
39524;SDS011;25203;50.754;6.978;2022-09-12T13:16:55;4.07;;;3.33;;
39524;SDS011;25203;50.754;6.978;2022-09-12T13:19:03;3.13;;;2.83;;
39524;SDS011;25203;50.754;6.978;2022-09-12T13:21:18;4.40;;;3.15;;
39524;SDS011;25203;50.754;6.978;2022-09-12T13:23:21;3.25;;;2.95;;
39524;SDS011;25203;50.754;6.978;2022-09-12T13:25:29;3.33;;;3.03;;
39524;SDS011;25203;50.754;6.978;2022-09-12T13:27:32;3.50;;;3.20;;
39524;SDS011;25203;50.754;6.978;2022-09-12T13:29:32;3.60;;;2.97;;
39524;SDS011;25203;50.754;6.978;2022-09-12T13:31:33;3.55;;;3.08;;
39524;SDS011;25203;50.754;6.978;2022-09-12T13:33:55;5.57;;;3.15;;
39524;SDS011;25203;50.754;6.978;2022-09-12T13:40:33;3.20;;;2.90;;
39524;SDS011;25203;50.754;6.978;2022-09-12T13:45:21;5.45;;;3.20;;
39524;SDS011;25203;50.754;6.978;2022-09-12T13:47:27;4.22;;;3.30;;
39524;SDS011;25203;50.754;6.978;2022-09-12T13:49:33;3.70;;;2.58;;
39524;SDS011;25203;50.754;6.978;2022-09-12T13:51:38;3.42;;;3.00;;
39524;SDS011;25203;50.754;6.978;2022-09-12T13:53:41;5.10;;;3.13;;
39524;SDS011;25203;50.754;6.978;2022-09-12T13:55:46;5.82;;;2.83;;
39524;SDS011;25203;50.754;6.978;2022-09-12T13:58:03;7.72;;;3.53;;
39524;SDS011;25203;50.754;6.978;2022-09-12T14:00:14;4.47;;;2.67;;
39524;SDS011;25203;50.754;6.978;2022-09-12T14:02:19;6.80;;;2.45;;
39524;SDS011;25203;50.754;6.978;2022-09-12T14:04:22;3.00;;;2.53;;
39524;SDS011;25203;50.754;6.978;2022-09-12T14:06:48;2.88;;;2.58;;
39524;SDS011;25203;50.754;6.978;2022-09-12T14:08:50;4.88;;;2.47;;
39524;SDS011;25203;50.754;6.978;2022-09-12T14:10:52;6.43;;;2.92;;
39524;SDS011;25203;50.754;6.978;2022-09-12T14:12:53;4.25;;;3.00;;
39524;SDS011;25203;50.754;6.978;2022-09-12T14:14:55;2.53;;;2.30;;
39524;SDS011;25203;50.754;6.978;2022-09-12T14:16:57;4.00;;;2.30;;
39524;SDS011;25203;50.754;6.978;2022-09-12T14:18:58;5.30;;;2.65;;
39524;SDS011;25203;50.754;6.978;2022-09-12T14:21:01;5.60;;;2.90;;
39524;SDS011;25203;50.754;6.978;2022-09-12T14:23:31;3.45;;;3.03;;
39524;SDS011;25203;50.754;6.978;2022-09-12T14:25:36;5.10;;;2.75;;
39524;SDS011;25203;50.754;6.978;2022-09-12T14:27:41;3.25;;;2.83;;
39524;SDS011;25203;50.754;6.978;2022-09-12T14:29:46;4.68;;;2.97;;
39524;SDS011;25203;50.754;6.978;2022-09-12T14:32:00;2.95;;;2.60;;